Time;durP1;ratioP1;P1;durP2;ratioP2;P2;SDS_P1;SDS_P2;PMS_P1;PMS_P2;Temp;Humidity;BMP_temperature;BMP_pressure;BME280_temperature;BME280_humidity;BME280_pressure;Samples;Min_cycle;Max_cycle;Signal;HPM_P1;HPM_P2
2023/09/02 00:00:56;;;;;;;0.77;0.77;;;;;;;17.93;83.72;98976.75;5001234;28;44407;-87
2023/09/02 00:03:24;;;;;;;0.77;0.60;;;;;;;17.84;83.26;98963.34;5017276;28;40816;-88
2023/09/02 00:05:52;;;;;;;0.77;0.77;;;;;;;17.82;83.11;98963.50;5016970;28;39241;-87
2023/09/02 00:08:19;;;;;;;1.43;0.70;;;;;;;17.79;83.12;98961.13;4999982;28;41877;-88
2023/09/02 00:10:47;;;;;;;1.03;0.80;;;;;;;17.73;82.92;98963.47;4999788;28;41834;-88
2023/09/02 00:13:14;;;;;;;0.93;0.93;;;;;;;17.66;83.09;98957.84;4999945;28;41012;-88
2023/09/02 00:15:43;;;;;;;1.27;1.07;;;;;;;17.66;83.19;98975.75;4999941;28;40903;-86
2023/09/02 00:18:11;;;;;;;1.77;1.00;;;;;;;17.62;83.16;98974.28;5033557;28;41800;-87
2023/09/02 00:20:38;;;;;;;0.70;0.70;;;;;;;17.55;82.76;98982.88;4999682;28;41748;-86
2023/09/02 00:23:06;;;;;;;0.80;0.80;;;;;;;17.45;83.03;98981.13;4999431;28;41260;-87
2023/09/02 00:25:33;;;;;;;1.00;0.90;;;;;;;17.32;82.87;98965.31;5016570;28;40034;-87
2023/09/02 00:28:01;;;;;;;1.20;0.90;;;;;;;17.27;83.07;98967.56;4999726;28;40901;-88
2023/09/02 00:30:29;;;;;;;0.63;0.63;;;;;;;17.23;83.37;98961.63;4999497;28;41371;-87
2023/09/02 00:32:58;;;;;;;0.60;0.60;;;;;;;17.15;83.32;98964.16;4998922;28;41007;-88
2023/09/02 00:35:26;;;;;;;0.70;0.70;;;;;;;17.13;83.45;98973.28;4999524;28;39945;-87
2023/09/02 00:37:53;;;;;;;1.57;0.90;;;;;;;17.12;83.88;98979.63;4999211;28;40703;-87
2023/09/02 00:40:31;;;;;;;1.37;0.83;;;;;;;17.10;84.31;98977.06;5000314;28;41388;-87
2023/09/02 00:43:02;;;;;;;2.13;1.07;;;;;;;17.10;84.84;98976.22;5000698;28;41721;-87
2023/09/02 00:45:30;;;;;;;2.10;1.40;;;;;;;17.16;85.18;98997.97;5017074;28;39971;-87
2023/09/02 00:48:00;;;;;;;1.83;1.40;;;;;;;17.15;85.45;98990.06;5000382;28;40717;-88
2023/09/02 00:50:27;;;;;;;2.03;1.37;;;;;;;17.01;85.22;98977.03;5016608;28;44224;-87
2023/09/02 00:52:55;;;;;;;1.40;1.30;;;;;;;17.11;85.68;98999.31;5000068;28;40791;-87
2023/09/02 00:55:22;;;;;;;1.83;1.40;;;;;;;16.99;85.61;98981.66;5000512;28;39885;-88
2023/09/02 00:57:50;;;;;;;2.00;1.50;;;;;;;16.97;85.79;98981.78;5016425;28;41560;-87
2023/09/02 01:00:20;;;;;;;1.67;1.23;;;;;;;17.00;85.70;99002.09;5016729;28;41854;-87
2023/09/02 01:02:47;;;;;;;1.37;1.27;;;;;;;16.79;85.32;98973.53;4999376;28;42542;-87
2023/09/02 01:05:17;;;;;;;1.43;1.03;;;;;;;16.91;85.31;98994.84;5008614;28;40123;-88
2023/09/02 01:07:45;;;;;;;1.07;1.00;;;;;;;16.84;85.11;98998.03;4997917;28;41658;-87
2023/09/02 01:10:13;;;;;;;2.77;1.20;;;;;;;16.80;85.11;99002.00;5015094;28;42762;-87
2023/09/02 01:12:41;;;;;;;3.37;1.00;;;;;;;16.80;84.93;98998.47;5015114;28;42587;-87
2023/09/02 01:15:09;;;;;;;3.20;1.33;;;;;;;16.77;85.29;99007.59;5015431;28;39133;-87
2023/09/02 01:17:37;;;;;;;2.60;1.07;;;;;;;16.80;85.15;99018.03;4998576;28;41883;-87
2023/09/02 01:20:11;;;;;;;0.80;0.80;;;;;;;16.65;85.11;98997.94;4999085;28;43545;-87
2023/09/02 01:22:59;;;;;;;1.00;0.90;;;;;;;16.74;84.89;99017.69;4998439;28;40825;-87
2023/09/02 01:25:49;;;;;;;0.80;0.60;;;;;;;16.68;84.84;99019.09;4998804;28;40057;-87
2023/09/02 01:28:21;;;;;;;1.27;1.00;;;;;;;16.66;84.98;99026.38;4998493;28;40584;-87
2023/09/02 01:30:53;;;;;;;1.93;1.37;;;;;;;16.56;84.84;99006.72;5011907;28;42777;-86
2023/09/02 01:33:22;;;;;;;0.93;0.90;;;;;;;16.53;84.80;99010.50;4998743;28;41202;-86
2023/09/02 01:35:52;;;;;;;2.17;1.10;;;;;;;16.61;84.88;99022.34;4998048;28;40421;-87
2023/09/02 01:38:24;;;;;;;1.10;1.00;;;;;;;16.59;85.27;99026.97;5015603;28;40176;-87
2023/09/02 01:40:52;;;;;;;1.00;0.80;;;;;;;16.54;85.22;99016.69;4999883;28;42782;-87
2023/09/02 01:43:23;;;;;;;1.20;1.10;;;;;;;16.53;85.49;99012.31;4999415;28;41459;-87
2023/09/02 01:45:52;;;;;;;2.27;1.40;;;;;;;16.53;85.60;99012.31;4999348;28;40184;-86
2023/09/02 01:48:20;;;;;;;1.10;1.00;;;;;;;16.47;85.26;98999.44;5015630;28;41971;-87
2023/09/02 01:50:49;;;;;;;1.27;1.03;;;;;;;16.58;85.31;99023.44;5015692;28;42834;-87
2023/09/02 01:53:16;;;;;;;1.07;0.83;;;;;;;16.47;85.51;99004.78;5008344;28;42922;-87
2023/09/02 01:55:45;;;;;;;1.03;0.90;;;;;;;16.57;85.58;99027.09;4999805;28;40212;-87
2023/09/02 01:58:13;;;;;;;1.07;0.80;;;;;;;16.34;85.55;98985.41;5015910;28;40769;-86
2023/09/02 02:00:42;;;;;;;1.23;1.07;;;;;;;16.49;85.53;99018.88;5015755;28;41780;-87
2023/09/02 02:03:18;;;;;;;1.23;1.00;;;;;;;16.42;85.56;99015.06;5032176;28;43287;-86
2023/09/02 02:05:51;;;;;;;1.43;0.90;;;;;;;16.27;85.42;98997.63;4998743;28;38614;-86
2023/09/02 02:08:31;;;;;;;1.40;1.10;;;;;;;16.40;85.48;99017.00;4997552;28;40279;-86
2023/09/02 02:11:02;;;;;;;0.77;0.77;;;;;;;16.41;85.23;99032.91;4997978;28;41953;-86
2023/09/02 02:13:30;;;;;;;1.20;0.90;;;;;;;16.34;85.53;99020.16;4998072;28;41236;-87
2023/09/02 02:15:59;;;;;;;1.20;0.83;;;;;;;16.31;85.44;99009.75;5031649;28;40360;-86
2023/09/02 02:18:27;;;;;;;0.70;0.70;;;;;;;16.30;85.48;99021.41;4998162;28;40630;-86
2023/09/02 02:21:00;;;;;;;1.20;0.90;;;;;;;16.30;85.53;99024.09;5014169;28;43342;-86
2023/09/02 02:23:27;;;;;;;1.23;1.00;;;;;;;16.37;85.27;99030.59;4997974;28;42356;-86
2023/09/02 02:25:59;;;;;;;2.90;0.93;;;;;;;16.27;85.75;99025.19;4997514;28;40020;-86
2023/09/02 02:28:27;;;;;;;1.07;0.93;;;;;;;16.33;85.68;99045.19;4997749;28;41679;-87
2023/09/02 02:30:55;;;;;;;1.10;1.00;;;;;;;16.24;85.78;99030.78;4997673;28;42377;-86
2023/09/02 02:33:25;;;;;;;1.03;0.93;;;;;;;16.18;85.43;99028.63;5014308;28;43253;-87
2023/09/02 02:35:52;;;;;;;1.10;1.00;;;;;;;16.21;85.58;99035.53;4997422;28;38882;-86
2023/09/02 02:38:20;;;;;;;1.37;0.90;;;;;;;16.14;85.60;99035.19;4998917;28;40420;-86
2023/09/02 02:40:47;;;;;;;1.20;0.87;;;;;;;16.22;85.38;99061.28;5015575;28;42873;-86
2023/09/02 02:43:15;;;;;;;1.20;0.80;;;;;;;16.09;85.47;99035.56;4998755;28;40973;-86
2023/09/02 02:45:43;;;;;;;0.70;0.70;;;;;;;16.17;85.55;99062.53;4998991;28;39007;-86
2023/09/02 02:48:15;;;;;;;0.83;0.83;;;;;;;16.15;85.53;99052.94;5015145;28;42280;-87
2023/09/02 02:50:44;;;;;;;1.23;1.00;;;;;;;16.12;85.27;99061.19;5015664;28;41738;-86
2023/09/02 02:53:13;;;;;;;1.10;0.80;;;;;;;16.03;85.45;99054.78;5012936;28;42172;-86
2023/09/02 02:55:41;;;;;;;0.60;0.60;;;;;;;16.05;85.21;99068.88;5014013;28;39146;-85
2023/09/02 02:58:09;;;;;;;1.07;0.90;;;;;;;16.00;84.86;99063.03;5013794;28;40532;-86
2023/09/02 03:00:39;;;;;;;0.87;0.80;;;;;;;15.93;84.78;99053.00;4998700;28;41876;-86
2023/09/02 03:03:07;;;;;;;1.07;0.97;;;;;;;15.91;85.17;99047.78;5035365;28;42248;-85
2023/09/02 03:05:36;;;;;;;0.80;0.80;;;;;;;15.98;85.01;99067.66;5019014;28;40937;-87
2023/09/02 03:08:06;;;;;;;0.80;0.80;;;;;;;16.00;84.79;99057.69;5017592;28;41754;-86
2023/09/02 03:10:35;;;;;;;1.63;0.90;;;;;;;16.06;84.98;99065.22;5000831;28;41677;-86
2023/09/02 03:13:04;;;;;;;0.80;0.80;;;;;;;16.14;84.81;99060.09;5017360;28;44496;-86
2023/09/02 03:15:33;;;;;;;0.80;0.80;;;;;;;16.23;84.47;99057.63;5017592;28;41038;-86
2023/09/02 03:18:01;;;;;;;1.07;0.73;;;;;;;16.32;84.42;99055.03;5017099;28;42697;-86
2023/09/02 03:20:33;;;;;;;0.87;0.80;;;;;;;16.31;84.49;99041.84;5000970;28;41849;-86
2023/09/02 03:23:04;;;;;;;0.90;0.90;;;;;;;16.57;84.31;99069.88;5016829;28;41835;-86
2023/09/02 03:25:34;;;;;;;1.10;1.00;;;;;;;16.51;84.44;99047.19;5001009;28;39307;-86
2023/09/02 03:28:02;;;;;;;1.93;0.80;;;;;;;16.59;84.03;99056.38;5016299;28;42003;-86
2023/09/02 03:30:30;;;;;;;0.73;0.73;;;;;;;16.44;84.10;99018.44;5000594;28;42844;-85
2023/09/02 03:32:58;;;;;;;1.73;1.20;;;;;;;16.70;84.46;99062.56;5016778;28;42047;-86
2023/09/02 03:35:26;;;;;;;1.30;0.90;;;;;;;16.79;84.35;99069.84;5000780;28;38908;-86
2023/09/02 03:37:54;;;;;;;1.30;1.00;;;;;;;16.71;84.09;99061.59;5000549;28;41583;-86
2023/09/02 03:40:21;;;;;;;2.33;0.77;;;;;;;16.69;84.19;99058.19;5001283;28;41872;-87
2023/09/02 03:42:51;;;;;;;0.80;0.73;;;;;;;16.65;84.18;99053.25;5017974;28;43280;-86
2023/09/02 03:45:19;;;;;;;0.80;0.80;;;;;;;16.75;84.50;99073.72;5017736;28;38711;-86
2023/09/02 03:47:46;;;;;;;0.80;0.80;;;;;;;16.74;84.49;99082.72;5017761;28;40633;-86
2023/09/02 03:50:23;;;;;;;1.07;0.77;;;;;;;16.72;84.49;99073.13;5001617;28;43146;-86
2023/09/02 03:52:50;;;;;;;0.80;0.80;;;;;;;16.61;84.50;99068.66;5000996;28;42232;-86
2023/09/02 03:55:18;;;;;;;0.80;0.80;;;;;;;16.63;84.40;99073.91;5017557;28;39971;-87
2023/09/02 03:57:46;;;;;;;1.00;0.90;;;;;;;16.69;84.19;99090.28;5001302;28;40847;-86
2023/09/02 04:00:17;;;;;;;1.83;0.77;;;;;;;16.75;84.48;99086.25;5001368;28;43099;-86
2023/09/02 04:02:44;;;;;;;0.97;0.80;;;;;;;16.66;84.18;99079.88;5017303;28;41553;-86
2023/09/02 04:05:14;;;;;;;0.87;0.70;;;;;;;16.72;84.17;99082.00;5000835;28;39009;-86
2023/09/02 04:07:41;;;;;;;0.90;0.80;;;;;;;16.76;84.01;99091.47;5015034;28;41888;-86
2023/09/02 04:10:09;;;;;;;0.90;0.80;;;;;;;16.83;84.28;99114.03;5000008;28;43198;-86
2023/09/02 04:12:37;;;;;;;1.33;0.83;;;;;;;16.77;84.31;99087.81;5015081;28;42400;-86
2023/09/02 04:15:06;;;;;;;1.07;0.90;;;;;;;16.78;85.28;99083.34;5016507;28;39954;-86
2023/09/02 04:17:35;;;;;;;1.03;0.90;;;;;;;16.74;84.64;99085.41;4999262;28;40555;-86
2023/09/02 04:20:04;;;;;;;0.90;0.90;;;;;;;16.72;84.94;99075.81;4999737;28;41512;-86
2023/09/02 04:22:32;;;;;;;1.60;0.63;;;;;;;16.91;85.24;99104.53;5033190;28;42255;-86
2023/09/02 04:25:00;;;;;;;1.33;1.23;;;;;;;16.80;85.21;99089.41;5015979;28;39800;-86
2023/09/02 04:27:28;;;;;;;0.97;0.83;;;;;;;16.77;85.89;99095.00;4999226;28;41882;-86
2023/09/02 04:29:56;;;;;;;0.80;0.80;;;;;;;16.88;85.93;99114.53;4999484;28;41326;-86
2023/09/02 04:32:24;;;;;;;0.90;0.90;;;;;;;16.82;86.00;99098.97;4999185;28;41339;-86
2023/09/02 04:34:53;;;;;;;1.30;1.20;;;;;;;16.86;85.78;99108.44;5033388;28;40150;-86
2023/09/02 04:37:21;;;;;;;0.80;0.80;;;;;;;16.92;85.67;99109.78;5032818;28;41710;-86
2023/09/02 04:39:49;;;;;;;1.10;1.00;;;;;;;17.05;85.77;99128.31;5000357;28;41648;-86
2023/09/02 04:42:16;;;;;;;1.03;0.97;;;;;;;17.09;85.99;99130.56;4999920;28;41464;-87
2023/09/02 04:44:44;;;;;;;3.03;0.93;;;;;;;17.05;86.01;99114.94;5016838;28;40875;-86
2023/09/02 04:47:12;;;;;;;1.07;1.00;;;;;;;17.10;86.08;99110.88;5016827;28;42743;-86
2023/09/02 04:49:40;;;;;;;0.80;0.80;;;;;;;17.16;85.64;99121.06;5000010;28;41749;-87
2023/09/02 04:52:09;;;;;;;0.93;0.93;;;;;;;17.22;85.50;99125.03;5016241;28;41296;-86
2023/09/02 04:54:37;;;;;;;0.60;0.60;;;;;;;17.22;85.32;99115.16;5000418;28;38689;-87
2023/09/02 04:57:05;;;;;;;0.70;0.70;;;;;;;17.11;85.42;99091.16;5000229;28;40832;-87
2023/09/02 04:59:33;;;;;;;0.90;0.90;;;;;;;17.40;85.25;99127.97;5000113;28;42661;-87
2023/09/02 05:02:01;;;;;;;1.00;0.90;;;;;;;17.60;85.29;99149.34;4999662;28;40746;-87
2023/09/02 05:04:29;;;;;;;1.10;1.00;;;;;;;17.57;84.82;99136.22;4999930;28;38851;-87
2023/09/02 05:06:56;;;;;;;0.80;0.80;;;;;;;17.71;84.98;99152.97;4997759;28;42174;-86
2023/09/02 05:09:26;;;;;;;1.07;0.97;;;;;;;17.69;84.95;99146.88;4998266;28;41689;-86
2023/09/02 05:11:53;;;;;;;1.70;1.60;;;;;;;17.83;84.95;99157.25;4998694;28;41298;-87
2023/09/02 05:14:21;;;;;;;1.20;1.10;;;;;;;17.80;84.77;99152.19;5015015;28;40175;-87
2023/09/02 05:16:49;;;;;;;1.47;1.20;;;;;;;17.75;84.86;99138.31;4998506;28;41715;-86
2023/09/02 05:19:18;;;;;;;1.50;1.40;;;;;;;17.82;84.66;99145.69;5015171;28;42963;-86
2023/09/02 05:21:46;;;;;;;1.33;1.20;;;;;;;17.91;84.72;99144.91;4998190;28;40801;-87
2023/09/02 05:24:14;;;;;;;1.30;1.20;;;;;;;18.04;84.89;99166.09;5006811;28;40942;-87
2023/09/02 05:26:44;;;;;;;1.37;1.27;;;;;;;17.98;84.79;99155.06;5014528;28;40803;-86
2023/09/02 05:29:11;;;;;;;1.33;1.20;;;;;;;17.99;84.85;99146.88;4998205;28;42566;-87
2023/09/02 05:31:39;;;;;;;1.90;1.67;;;;;;;18.11;84.56;99161.03;5014290;28;41167;-87
2023/09/02 05:34:07;;;;;;;1.47;1.37;;;;;;;17.98;84.60;99145.19;4998640;28;39999;-87
2023/09/02 05:36:34;;;;;;;2.00;1.77;;;;;;;17.99;84.56;99141.53;4997641;28;41206;-87
2023/09/02 05:39:03;;;;;;;1.30;1.20;;;;;;;18.07;84.59;99149.72;5015804;28;42038;-87
2023/09/02 05:41:30;;;;;;;1.30;1.20;;;;;;;18.13;84.83;99154.56;5015777;28;41394;-87
2023/09/02 05:44:00;;;;;;;1.10;0.97;;;;;;;18.14;84.53;99163.44;5016114;28;40265;-87
2023/09/02 05:46:27;;;;;;;1.50;1.40;;;;;;;18.08;84.71;99145.22;4998610;28;42733;-87
2023/09/02 05:48:55;;;;;;;2.67;1.67;;;;;;;18.27;84.46;99164.91;5016088;28;43783;-87
2023/09/02 05:51:22;;;;;;;2.13;1.40;;;;;;;18.33;84.50;99159.97;4998926;28;40564;-87
2023/09/02 05:53:50;;;;;;;1.40;1.30;;;;;;;18.33;84.31;99159.97;4999742;28;38918;-87
2023/09/02 05:56:18;;;;;;;3.10;1.43;;;;;;;18.36;84.05;99157.00;4998730;28;41019;-87
2023/09/02 05:58:45;;;;;;;0.83;0.83;;;;;;;18.42;83.91;99148.44;4999182;28;42034;-87
2023/09/02 06:01:14;;;;;;;1.53;1.43;;;;;;;18.45;84.01;99142.75;5015384;28;42247;-87
2023/09/02 06:03:42;;;;;;;1.70;1.40;;;;;;;18.61;83.79;99154.69;4999346;28;40478;-87
2023/09/02 06:06:10;;;;;;;1.87;1.30;;;;;;;18.72;83.53;99156.41;4997952;28;40684;-87
2023/09/02 06:08:38;;;;;;;1.40;1.30;;;;;;;18.86;83.46;99172.09;5013875;28;43749;-87
2023/09/02 06:11:06;;;;;;;1.27;1.17;;;;;;;18.84;83.28;99149.06;5025553;28;42301;-86
2023/09/02 06:13:36;;;;;;;1.37;1.17;;;;;;;19.02;83.12;99160.78;5051234;28;40500;-86
2023/09/02 06:16:05;;;;;;;1.33;1.23;;;;;;;18.92;82.91;99131.25;5015659;28;41571;-87
2023/09/02 06:18:35;;;;;;;1.20;1.10;;;;;;;19.19;82.88;99160.06;4998227;28;41868;-87
2023/09/02 06:21:08;;;;;;;1.90;1.70;;;;;;;19.27;82.37;99162.91;4997437;28;42349;-87
2023/09/02 06:23:36;;;;;;;1.30;1.20;;;;;;;19.23;82.43;99157.94;5014328;28;39655;-87
2023/09/02 06:26:04;;;;;;;1.57;1.47;;;;;;;19.31;82.40;99163.44;5014227;28;42773;-87
2023/09/02 06:28:32;;;;;;;1.23;1.13;;;;;;;19.34;81.83;99165.84;5014416;28;42048;-87
2023/09/02 06:30:59;;;;;;;1.00;0.90;;;;;;;19.47;81.44;99185.19;5013988;28;41914;-87
2023/09/02 06:33:27;;;;;;;0.90;0.90;;;;;;;19.45;81.36;99170.19;4997875;28;39107;-87
2023/09/02 06:35:56;;;;;;;0.80;0.80;;;;;;;19.43;80.95;99151.53;4996710;28;40695;-87
2023/09/02 06:38:23;;;;;;;0.70;0.70;;;;;;;19.64;80.77;99180.97;4998556;28;41526;-87
2023/09/02 06:40:51;;;;;;;0.87;0.87;;;;;;;19.69;80.58;99175.97;5015164;28;42250;-88
2023/09/02 06:43:19;;;;;;;0.93;0.90;;;;;;;19.71;80.71;99177.53;5015139;28;40092;-87
2023/09/02 06:45:47;;;;;;;1.40;1.30;;;;;;;19.77;79.98;99188.69;4998560;28;40753;-88
2023/09/02 06:48:15;;;;;;;0.83;0.83;;;;;;;19.86;79.61;99209.31;5014998;28;41746;-88
2023/09/02 06:50:46;;;;;;;1.00;1.00;;;;;;;19.78;78.66;99198.47;5032814;28;43213;-88
2023/09/02 06:53:15;;;;;;;1.13;0.90;;;;;;;19.78;78.85;99201.16;5031397;28;38855;-88
2023/09/02 06:55:42;;;;;;;0.73;0.73;;;;;;;19.83;79.04;99201.53;5015381;28;41977;-88
2023/09/02 06:58:11;;;;;;;1.37;0.93;;;;;;;19.86;79.00;99201.25;5014991;28;42366;-88
2023/09/02 07:00:39;;;;;;;0.83;0.83;;;;;;;19.79;78.74;99189.38;4998373;28;42424;-88
2023/09/02 07:03:06;;;;;;;0.80;0.80;;;;;;;19.92;78.59;99195.28;4998374;28;38795;-87
2023/09/02 07:05:34;;;;;;;1.10;1.00;;;;;;;20.04;77.75;99204.84;5014692;28;40267;-88
2023/09/02 07:08:02;;;;;;;0.83;0.83;;;;;;;20.03;77.57;99201.31;5012652;28;42728;-88
2023/09/02 07:10:31;;;;;;;1.00;1.00;;;;;;;20.17;77.75;99220.66;4996956;28;41224;-87
2023/09/02 07:12:59;;;;;;;0.87;0.87;;;;;;;20.19;77.05;99199.84;4997350;28;39951;-88
2023/09/02 07:15:26;;;;;;;1.10;0.90;;;;;;;20.28;76.64;99205.19;4997154;28;42075;-88
2023/09/02 07:17:54;;;;;;;1.33;1.23;;;;;;;20.41;75.49;99207.56;4997172;28;43122;-88
2023/09/02 07:20:22;;;;;;;1.13;1.13;;;;;;;20.47;74.21;99212.34;4997092;28;41374;-89
2023/09/02 07:22:49;;;;;;;1.10;1.00;;;;;;;20.56;74.28;99205.22;5013611;28;39915;-89
2023/09/02 07:25:17;;;;;;;3.07;1.20;;;;;;;20.65;74.19;99199.75;4996911;28;40703;-89
2023/09/02 07:27:46;;;;;;;1.27;1.17;;;;;;;20.72;73.69;99198.19;4996570;28;43042;-88
2023/09/02 07:30:14;;;;;;;1.17;1.07;;;;;;;20.96;73.69;99229.03;5030307;28;41177;-89
2023/09/02 07:32:41;;;;;;;1.33;1.23;;;;;;;20.98;72.76;99218.97;5029860;28;38987;-87
2023/09/02 07:35:10;;;;;;;1.00;1.00;;;;;;;21.09;73.09;99211.50;5013495;28;40686;-88
2023/09/02 07:37:37;;;;;;;2.47;1.17;;;;;;;21.08;71.58;99204.44;5013519;28;42866;-89
2023/09/02 07:40:07;;;;;;;0.77;0.77;;;;;;;21.24;71.71;99227.16;5014476;28;41950;-89
2023/09/02 07:42:34;;;;;;;1.47;0.77;;;;;;;21.30;72.03;99231.94;4998107;28;40117;-89
2023/09/02 07:45:04;;;;;;;0.63;0.63;;;;;;;21.37;72.33;99227.63;5014387;28;42677;-89
2023/09/02 07:47:31;;;;;;;0.60;0.60;;;;;;;21.49;71.87;99238.00;4998617;28;41972;-89
2023/09/02 07:49:59;;;;;;;0.57;0.57;;;;;;;21.51;71.65;99235.16;5017477;28;41681;-90
2023/09/02 07:52:27;;;;;;;0.80;0.80;;;;;;;21.66;69.85;99259.69;5000843;28;39025;-90
2023/09/02 07:54:54;;;;;;;0.90;0.90;;;;;;;21.63;70.28;99260.88;5017748;28;41663;-89
2023/09/02 07:57:22;;;;;;;0.80;0.80;;;;;;;21.62;70.12;99261.88;5000949;28;41995;-89
2023/09/02 07:59:49;;;;;;;0.60;0.60;;;;;;;21.65;70.85;99275.00;5001331;28;41613;-89
2023/09/02 08:02:18;;;;;;;0.50;0.50;;;;;;;21.53;70.58;99254.69;5001395;28;39829;-89
2023/09/02 08:04:46;;;;;;;0.73;0.73;;;;;;;21.58;70.68;99256.94;5001377;28;41687;-90
2023/09/02 08:07:13;;;;;;;3.20;0.67;;;;;;;21.60;70.95;99271.97;5015017;28;41723;-89
2023/09/02 08:09:41;;;;;;;0.70;0.70;;;;;;;21.61;70.33;99268.25;5016594;28;41160;-89
2023/09/02 08:12:11;;;;;;;0.77;0.77;;;;;;;21.67;70.35;99275.72;4999895;28;40071;-89
2023/09/02 08:14:39;;;;;;;0.53;0.53;;;;;;;21.84;70.39;99285.63;5016308;28;41870;-89
2023/09/02 08:17:06;;;;;;;0.40;0.40;;;;;;;21.88;70.35;99278.91;5016075;28;43749;-88
2023/09/02 08:19:36;;;;;;;0.40;0.40;;;;;;;22.09;70.24;99284.00;4999820;28;42317;-89
2023/09/02 08:22:04;;;;;;;0.60;0.60;;;;;;;22.22;69.45;99283.56;4999194;28;41932;-89
2023/09/02 08:24:32;;;;;;;0.90;0.60;;;;;;;22.16;67.75;99258.06;5015606;28;41826;-89
2023/09/02 08:26:59;;;;;;;0.60;0.60;;;;;;;22.55;67.21;99307.03;4999659;28;42525;-88
2023/09/02 08:29:27;;;;;;;0.50;0.50;;;;;;;22.61;66.56;99294.75;5016138;28;42161;-89
2023/09/02 08:31:55;;;;;;;0.67;0.67;;;;;;;22.76;66.21;99300.38;4999467;28;38922;-88
2023/09/02 08:34:23;;;;;;;0.60;0.60;;;;;;;22.69;65.68;99280.41;5015711;28;41824;-89
2023/09/02 08:36:52;;;;;;;0.50;0.50;;;;;;;23.15;65.52;99325.84;5015224;28;42793;-89
2023/09/02 08:39:20;;;;;;;0.80;0.80;;;;;;;23.19;64.85;99316.41;5016253;28;41462;-89
2023/09/02 08:41:51;;;;;;;0.70;0.70;;;;;;;23.28;63.92;99323.53;5016854;28;40135;-89
2023/09/02 08:44:19;;;;;;;0.87;0.87;;;;;;;23.39;61.81;99338.59;5000210;28;40673;-89
2023/09/02 08:46:47;;;;;;;0.70;0.70;;;;;;;23.23;61.74;99328.59;5000241;28;42705;-90
2023/09/02 08:49:16;;;;;;;0.50;0.50;;;;;;;23.40;62.97;99351.09;5016446;28;41211;-88
2023/09/02 08:51:45;;;;;;;0.80;0.80;;;;;;;23.34;61.76;99345.53;4983775;28;40907;-88
2023/09/02 08:54:15;;;;;;;0.60;0.60;;;;;;;23.24;62.57;99341.06;5000242;28;40698;-89
2023/09/02 08:56:44;;;;;;;0.60;0.60;;;;;;;23.45;62.59;99358.72;4999635;28;42985;-89
2023/09/02 08:59:11;;;;;;;0.50;0.50;;;;;;;23.53;62.92;99347.94;4999653;28;42019;-89
2023/09/02 09:01:43;;;;;;;0.60;0.60;;;;;;;23.71;62.42;99342.41;4999882;28;39211;-89
2023/09/02 09:04:12;;;;;;;0.63;0.63;;;;;;;23.79;61.84;99324.31;5015783;28;41782;-90
2023/09/02 09:06:44;;;;;;;0.50;0.50;;;;;;;24.16;61.48;99345.44;5031971;28;42953;-89
2023/09/02 09:09:17;;;;;;;0.70;0.50;;;;;;;24.58;60.53;99360.66;5007951;28;20932;-91
2023/09/02 09:11:45;;;;;;;0.70;0.70;;;;;;;24.90;59.89;99370.53;4998646;28;38847;-89
2023/09/02 09:14:21;;;;;;;1.10;0.47;;;;;;;25.10;57.44;99379.94;5031205;28;40877;-90
2023/09/02 09:16:52;;;;;;;2.03;0.80;;;;;;;25.79;56.26;99380.97;5015595;28;43268;-91
2023/09/02 09:19:20;;;;;;;0.60;0.60;;;;;;;26.23;55.64;99362.13;5018753;28;43021;-89
2023/09/02 09:21:49;;;;;;;1.00;0.60;;;;;;;27.07;54.48;99381.84;5019953;28;39021;-89
2023/09/02 09:24:22;;;;;;;0.50;0.50;;;;;;;27.42;53.67;99359.28;5000222;28;41107;-89
2023/09/02 09:26:50;;;;;;;0.70;0.70;;;;;;;28.31;50.76;99399.84;4998731;28;41896;-88
2023/09/02 09:29:20;;;;;;;0.90;0.40;;;;;;;29.47;49.11;99404.59;5014708;28;42512;-91
2023/09/02 09:31:49;;;;;;;0.70;0.70;;;;;;;30.50;46.46;99425.22;4998474;28;40696;-88
2023/09/02 09:34:17;;;;;;;0.60;0.60;;;;;;;30.56;45.99;99433.44;4998541;28;40521;-89
2023/09/02 09:36:57;;;;;;;0.80;0.80;;;;;;;30.85;43.49;99434.06;5014200;28;43495;-91
2023/09/02 09:39:38;;;;;;;0.67;0.67;;;;;;;31.55;43.07;99438.75;4998991;28;42539;-92
2023/09/02 09:42:06;;;;;;;1.37;0.80;;;;;;;31.68;41.18;99460.63;4999802;28;39854;-90
2023/09/02 09:44:34;;;;;;;0.50;0.50;;;;;;;31.41;42.00;99442.56;4999073;28;40628;-91
2023/09/02 09:47:02;;;;;;;0.60;0.60;;;;;;;31.55;42.50;99432.41;4999586;28;42653;-90
2023/09/02 09:49:31;;;;;;;0.50;0.50;;;;;;;32.11;41.47;99454.50;4999297;28;41357;-90
2023/09/02 09:52:10;;;;;;;0.60;0.60;;;;;;;31.83;42.17;99443.91;4998917;28;39592;-89
2023/09/02 09:54:41;;;;;;;0.60;0.60;;;;;;;31.26;42.53;99437.38;4999263;28;40884;-91
2023/09/02 09:57:10;;;;;;;0.50;0.50;;;;;;;30.81;43.29;99419.97;4999333;28;41522;-90
2023/09/02 09:59:38;;;;;;;0.53;0.53;;;;;;;30.90;43.44;99424.19;4999266;28;41735;-92
2023/09/02 10:02:07;;;;;;;0.50;0.50;;;;;;;30.82;42.66;99429.00;4999236;28;39107;-91
2023/09/02 10:04:35;;;;;;;0.63;0.63;;;;;;;30.80;43.77;99423.75;4999035;28;40946;-91
2023/09/02 10:07:04;;;;;;;0.80;0.80;;;;;;;30.76;43.03;99422.50;4997111;28;41675;-91
2023/09/02 10:09:44;;;;;;;0.60;0.60;;;;;;;30.90;43.48;99428.81;4997347;28;41304;-91
2023/09/02 10:12:12;;;;;;;0.50;0.50;;;;;;;31.04;43.41;99419.50;4998010;28;39026;-93
2023/09/02 10:14:41;;;;;;;0.50;0.50;;;;;;;31.33;43.22;99426.41;4998078;28;40651;-92
2023/09/02 10:17:10;;;;;;;0.60;0.60;;;;;;;31.35;42.91;99429.78;4998146;28;41757;-90
2023/09/02 10:19:38;;;;;;;0.50;0.50;;;;;;;31.46;43.96;99415.41;4997777;28;40986;-92
2023/09/02 10:22:07;;;;;;;0.60;0.60;;;;;;;31.53;43.17;99424.41;4997496;28;39200;-87
2023/09/02 10:24:36;;;;;;;0.40;0.40;;;;;;;31.24;42.64;99424.97;4997957;28;42543;-92
2023/09/02 10:27:09;;;;;;;0.50;0.50;;;;;;;31.38;43.16;99410.19;4997325;28;43740;-93
2023/09/02 10:29:43;;;;;;;0.87;0.70;;;;;;;31.79;41.77;99428.97;4998136;28;41288;-93
2023/09/02 10:32:13;;;;;;;1.33;0.60;;;;;;;32.52;41.93;99401.91;4982289;28;39841;-92
2023/09/02 10:34:48;;;;;;;0.63;0.40;;;;;;;33.68;40.29;99436.84;4998071;28;41022;-91
2023/09/02 10:37:21;;;;;;;0.40;0.40;;;;;;;34.21;39.45;99451.56;4997595;28;41820;-94
2023/09/02 10:39:53;;;;;;;0.53;0.47;;;;;;;33.98;39.21;99440.50;4999203;28;41962;-91
2023/09/02 10:42:24;;;;;;;0.60;0.60;;;;;;;33.92;38.89;99430.41;4998221;28;39078;-91
2023/09/02 10:44:53;;;;;;;0.83;0.80;;;;;;;33.71;40.20;99401.50;4998996;28;41972;-92
2023/09/02 10:47:22;;;;;;;0.53;0.53;;;;;;;33.77;39.23;99433.56;4998036;28;42284;-92
2023/09/02 10:49:51;;;;;;;0.50;0.50;;;;;;;33.69;39.76;99420.13;4997507;28;42216;-90
2023/09/02 10:52:19;;;;;;;0.50;0.50;;;;;;;33.82;39.53;99433.72;4996994;28;39011;-91
2023/09/02 10:55:03;;;;;;;0.97;0.70;;;;;;;34.37;40.33;99430.00;4997138;28;41113;-92
2023/09/02 10:57:44;;;;;;;0.60;0.60;;;;;;;34.97;39.53;99402.31;4997235;28;41698;-91
2023/09/02 11:00:20;;;;;;;0.60;0.60;;;;;;;35.09;39.16;99409.47;4997191;28;41377;-91
2023/09/02 11:02:52;;;;;;;1.50;0.70;;;;;;;34.78;39.48;99423.59;4996901;28;40300;-91
2023/09/02 11:05:19;;;;;;;0.77;0.77;;;;;;;34.46;40.26;99388.16;4997239;28;41032;-92
2023/09/02 11:07:50;;;;;;;3.13;0.83;;;;;;;34.89;38.28;99403.47;5013170;28;42893;-91
2023/09/02 11:10:18;;;;;;;0.70;0.70;;;;;;;34.98;37.49;99435.09;4989988;28;41627;-90
2023/09/02 11:13:07;;;;;;;0.60;0.60;;;;;;;34.84;38.02;99420.75;4996895;28;40155;-92
2023/09/02 11:15:36;;;;;;;0.83;0.83;;;;;;;34.78;38.28;99429.94;4997402;28;40403;-91
2023/09/02 11:18:29;;;;;;;0.80;0.80;;;;;;;34.81;38.69;99425.88;4997973;28;41678;-92
2023/09/02 11:20:57;;;;;;;0.60;0.60;;;;;;;35.55;37.90;99418.75;4997009;28;41514;-92
2023/09/02 11:23:25;;;;;;;0.70;0.70;;;;;;;36.85;34.92;99428.88;5000516;28;40798;-93
2023/09/02 11:26:04;;;;;;;1.10;0.60;;;;;;;38.04;32.77;99452.06;5001157;28;41099;-94
2023/09/02 11:28:33;;;;;;;1.58;0.70;;;;;;;38.53;33.90;99449.28;5000454;28;42273;-92
2023/09/02 11:31:12;;;;;;;1.20;0.80;;;;;;;38.69;32.41;99451.09;5000134;28;41266;-91
2023/09/02 11:33:40;;;;;;;0.82;0.82;;;;;;;38.36;33.17;99434.69;5000289;28;39237;-93
2023/09/02 11:36:12;;;;;;;0.60;0.60;;;;;;;38.87;33.23;99435.13;5000671;28;40879;-92
2023/09/02 11:38:40;;;;;;;0.90;0.90;;;;;;;39.29;30.90;99402.75;5003157;28;43046;-89
2023/09/02 11:41:09;;;;;;;0.60;0.60;;;;;;;40.04;30.93;99443.00;5010267;28;42349;-90
2023/09/02 11:43:38;;;;;;;0.80;0.80;;;;;;;40.24;30.62;99436.63;5002241;28;39325;-92